createdAt,value
2022-10-22T00:01:57.272Z,99828.69
2022-10-22T00:04:23.801Z,99829.50
2022-10-22T00:06:50.270Z,99828.69
2022-10-22T00:09:17.346Z,99821.22
2022-10-22T00:11:43.966Z,99824.66
2022-10-22T00:14:11.673Z,99817.81
2022-10-22T00:16:38.244Z,99818.44
2022-10-22T00:19:04.717Z,99822.34
2022-10-22T00:21:31.216Z,99822.34
2022-10-22T00:23:57.740Z,99827.56
2022-10-22T00:26:24.304Z,99823.63
2022-10-22T00:28:50.767Z,99819.75
2022-10-22T00:31:17.319Z,99824.94
2022-10-22T00:33:46.864Z,99842.19
2022-10-22T00:36:15.160Z,99822.97
2022-10-22T00:38:42.105Z,99825.75
2022-10-22T00:41:09.002Z,99823.28
2022-10-22T00:43:54.000Z,99820.69
2022-10-22T00:46:20.482Z,99822.81
2022-10-22T00:48:47.022Z,99817.44
2022-10-22T00:51:14.525Z,99818.41
2022-10-22T00:53:47.695Z,99828.16
2022-10-22T00:56:14.388Z,99816.78
2022-10-22T00:58:47.823Z,99820.84
2022-10-22T01:01:18.284Z,99820.84
2022-10-22T01:03:44.809Z,99820.03
2022-10-22T01:06:19.147Z,99821.16
2022-10-22T01:08:48.356Z,99821.16
2022-10-22T01:11:34.884Z,99825.25
2022-10-22T01:14:13.197Z,99821.97
2022-10-22T01:16:59.756Z,99818.25
2022-10-22T01:19:45.169Z,99819.41
2022-10-22T01:22:20.916Z,99817.44
2022-10-22T01:25:05.443Z,99827.84
2022-10-22T01:27:52.839Z,99821.16
2022-10-22T01:30:20.374Z,99830.78
2022-10-22T01:32:51.230Z,99828.00
2022-10-22T01:35:23.091Z,99831.94
2022-10-22T01:37:54.140Z,99833.72
2022-10-22T01:40:23.019Z,99833.06
2022-10-22T01:43:15.592Z,99828.00
2022-10-22T01:45:47.141Z,99830.31
2022-10-22T01:48:38.989Z,99827.88
2022-10-22T01:51:19.359Z,99833.09
2022-10-22T01:54:10.301Z,99835.84
2022-10-22T01:56:45.846Z,99832.13
2022-10-22T01:59:21.919Z,99833.09
2022-10-22T02:01:54.361Z,99831.78
2022-10-22T02:04:26.802Z,99832.75
2022-10-22T02:06:57.543Z,99829.47
2022-10-22T02:09:28.331Z,99835.03
2022-10-22T02:11:57.123Z,99837.00
2022-10-22T02:14:27.993Z,99836.16
2022-10-22T02:16:57.385Z,99831.78
2022-10-22T02:19:44.138Z,99844.81
2022-10-22T02:22:10.949Z,99842.53
2022-10-22T02:24:37.623Z,99841.88
2022-10-22T02:27:26.016Z,99842.88
2022-10-22T02:29:57.097Z,99842.69
2022-10-22T02:32:28.375Z,99844.81
2022-10-22T02:34:56.900Z,99847.09
2022-10-22T02:37:25.658Z,99845.47
2022-10-22T02:39:53.925Z,99841.22
2022-10-22T02:42:20.413Z,99839.94
2022-10-22T02:44:46.934Z,99844.50
2022-10-22T02:47:13.459Z,99847.25
2022-10-22T02:49:39.921Z,99848.88
2022-10-22T02:52:06.379Z,99843.66
2022-10-22T02:54:33.096Z,99844.78
2022-10-22T02:56:59.545Z,99853.56
2022-10-22T02:59:26.012Z,99853.41
2022-10-22T03:01:52.599Z,99846.41
2022-10-22T03:04:19.104Z,99845.59
2022-10-22T03:06:45.559Z,99846.91
2022-10-22T03:09:12.143Z,99847.06
2022-10-22T03:11:38.621Z,99846.09
2022-10-22T03:14:05.092Z,99838.13
2022-10-22T03:16:31.816Z,99844.81
2022-10-22T03:18:58.331Z,99847.72
2022-10-22T03:21:37.007Z,99842.38
2022-10-22T03:24:10.322Z,99844.34
2022-10-22T03:26:38.567Z,99839.13
2022-10-22T03:29:05.587Z,99841.56
2022-10-22T03:31:32.148Z,99837.00
2022-10-22T03:33:58.649Z,99833.56
2022-10-22T03:36:25.936Z,99839.25
2022-10-22T03:38:52.447Z,99840.88
2022-10-22T03:41:18.991Z,99836.00
2022-10-22T03:43:45.725Z,99844.78
2022-10-22T03:46:12.183Z,99840.88
2022-10-22T03:48:38.642Z,99839.88
2022-10-22T03:51:05.437Z,99841.84
2022-10-22T03:53:31.899Z,99841.84
2022-10-22T03:55:58.359Z,99845.41
2022-10-22T03:58:24.955Z,99847.38
2022-10-22T04:00:51.565Z,99848.34
2022-10-22T04:03:18.071Z,99853.38
2022-10-22T04:05:44.699Z,99856.16
2022-10-22T04:08:11.174Z,99857.31
2022-10-22T04:10:37.644Z,99858.28
2022-10-22T04:13:04.226Z,99849.19
2022-10-22T04:15:30.719Z,99857.00
2022-10-22T04:17:57.293Z,99853.56
2022-10-22T04:20:23.855Z,99853.41
2022-10-22T04:22:50.317Z,99844.16
2022-10-22T04:25:16.812Z,99849.38
2022-10-22T04:27:43.513Z,99843.50
2022-10-22T04:30:10.522Z,99857.16
2022-10-22T04:32:37.780Z,99863.84
2022-10-22T04:35:04.953Z,99859.44
2022-10-22T04:37:31.430Z,99859.78
2022-10-22T04:39:58.328Z,99852.63
2022-10-22T04:42:25.134Z,99852.16
2022-10-22T04:44:51.598Z,99858.81
2022-10-22T04:47:18.093Z,99857.84
2022-10-22T04:49:44.686Z,99861.41
2022-10-22T04:52:11.170Z,99863.56
2022-10-22T04:54:37.631Z,99860.13
2022-10-22T04:57:04.276Z,99860.78
2022-10-22T04:59:30.748Z,99863.75
2022-10-22T05:01:57.212Z,99854.44
2022-10-22T05:04:23.857Z,99858.84
2022-10-22T05:06:50.317Z,99855.25
2022-10-22T05:09:19.215Z,99857.88
2022-10-22T05:11:47.420Z,99861.78
2022-10-22T05:14:16.718Z,99859.84
2022-10-22T05:16:43.635Z,99860.34
2022-10-22T05:19:16.463Z,99866.69
2022-10-22T05:21:42.952Z,99865.06
2022-10-22T05:24:09.416Z,99864.75
2022-10-22T05:26:36.016Z,99862.31
2022-10-22T05:29:02.565Z,99869.66
2022-10-22T05:31:29.056Z,99873.06
2022-10-22T05:33:55.923Z,99874.53
2022-10-22T05:36:23.289Z,99879.94
2022-10-22T05:38:50.287Z,99870.66
2022-10-22T05:41:22.627Z,99877.16
2022-10-22T05:43:49.493Z,99876.34
2022-10-22T05:46:22.473Z,99886.97
2022-10-22T05:48:51.802Z,99877.84
2022-10-22T05:51:19.031Z,99879.09
2022-10-22T05:53:46.014Z,99885.50
2022-10-22T05:56:15.515Z,99880.41
2022-10-22T05:58:43.621Z,99885.00
2022-10-22T06:01:18.744Z,99888.94
2022-10-22T06:03:46.767Z,99890.88
2022-10-22T06:06:33.963Z,99885.00
2022-10-22T06:09:31.592Z,99892.69
2022-10-22T06:11:58.631Z,99890.69
2022-10-22T06:14:26.809Z,99894.81
2022-10-22T06:16:54.129Z,99894.47
2022-10-22T06:19:22.373Z,99898.72
2022-10-22T06:21:49.164Z,99906.22
2022-10-22T06:24:16.307Z,99908.16
2022-10-22T06:26:43.136Z,99908.81
2022-10-22T06:29:10.344Z,99905.84
2022-10-22T06:31:36.926Z,99906.78
2022-10-22T06:34:10.539Z,99904.84
2022-10-22T06:36:38.207Z,99913.00
2022-10-22T06:39:05.530Z,99907.44
2022-10-22T06:41:32.078Z,99913.47
2022-10-22T06:43:58.578Z,99917.56
2022-10-22T06:46:26.137Z,99920.81
2022-10-22T06:49:14.106Z,99922.59
2022-10-22T06:51:40.997Z,99920.16
2022-10-22T06:54:08.117Z,99917.84
2022-10-22T06:56:34.996Z,99922.72
2022-10-22T06:59:01.490Z,99930.88
2022-10-22T07:01:31.840Z,99922.06
2022-10-22T07:03:58.784Z,99926.13
2022-10-22T07:06:26.681Z,99932.19
2022-10-22T07:08:54.741Z,99930.88
2022-10-22T07:11:25.460Z,99925.66
2022-10-22T07:13:54.716Z,99921.06
2022-10-22T07:16:21.313Z,99921.97
2022-10-22T07:18:48.627Z,99927.50
2022-10-22T07:21:17.508Z,99928.16
2022-10-22T07:23:44.698Z,99931.38
2022-10-22T07:26:14.504Z,99947.25
2022-10-22T07:28:41.274Z,99924.53
2022-10-22T07:31:09.630Z,99934.34
2022-10-22T07:33:36.812Z,99932.03
2022-10-22T07:36:06.044Z,99934.91
2022-10-22T07:38:33.131Z,99939.59
2022-10-22T07:41:00.081Z,99935.00
2022-10-22T07:43:27.004Z,99942.69
2022-10-22T07:45:53.501Z,99938.56
2022-10-22T07:48:20.017Z,99946.84
2022-10-22T07:50:46.496Z,99936.97
2022-10-22T07:53:12.959Z,99951.00
2022-10-22T07:55:39.489Z,99948.34
2022-10-22T07:58:05.964Z,99943.84
2022-10-22T08:00:32.475Z,99943.69
2022-10-22T08:02:59.054Z,99941.06
2022-10-22T08:05:25.607Z,99940.41
2022-10-22T08:07:52.096Z,99938.50
2022-10-22T08:10:18.834Z,99937.69
2022-10-22T08:12:45.317Z,99929.00
2022-10-22T08:15:11.809Z,99934.78
2022-10-22T08:17:38.781Z,99932.63
2022-10-22T08:20:06.134Z,99936.25
2022-10-22T08:22:32.596Z,99931.63
2022-10-22T08:24:59.094Z,99929.03
2022-10-22T08:27:25.721Z,99932.28
2022-10-22T08:29:52.216Z,99932.66
2022-10-22T08:32:18.782Z,99926.91
2022-10-22T08:34:46.910Z,99933.25
2022-10-22T08:37:13.387Z,99926.22
2022-10-22T08:39:40.756Z,99923.44
2022-10-22T08:42:38.139Z,99918.97
2022-10-22T08:45:16.880Z,99923.41
2022-10-22T08:47:49.329Z,99918.59
2022-10-22T08:50:39.802Z,99920.94
2022-10-22T08:53:16.450Z,99918.59
2022-10-22T08:55:43.885Z,99918.22
2022-10-22T08:58:22.886Z,99911.88
2022-10-22T09:01:11.220Z,99917.13
2022-10-22T09:03:37.639Z,99925.81
2022-10-22T09:06:20.380Z,99918.59
2022-10-22T09:08:48.016Z,99928.28
2022-10-22T09:11:36.578Z,99925.31
2022-10-22T09:14:04.334Z,99919.34
2022-10-22T09:16:39.107Z,99920.41
2022-10-22T09:19:27.335Z,99924.03
2022-10-22T09:22:03.816Z,99921.13
2022-10-22T09:24:42.055Z,99920.84
2022-10-22T09:27:18.367Z,99917.50
2022-10-22T09:29:46.979Z,99916.44
2022-10-22T09:32:14.612Z,99919.66
2022-10-22T09:34:43.642Z,99917.47
2022-10-22T09:37:11.014Z,99915.78
2022-10-22T09:39:40.332Z,99922.38
2022-10-22T09:42:07.848Z,99911.00
2022-10-22T09:44:35.801Z,99915.81
2022-10-22T09:47:43.339Z,99911.19
2022-10-22T09:50:22.633Z,99911.44
2022-10-22T09:53:35.229Z,99913.34
2022-10-22T09:56:09.148Z,99908.38
2022-10-22T09:58:47.296Z,99908.81
2022-10-22T10:01:21.970Z,99903.56
2022-10-22T10:03:49.521Z,99903.75
2022-10-22T10:06:23.616Z,99896.13
2022-10-22T10:08:50.532Z,99912.44
2022-10-22T10:11:29.656Z,99896.66
2022-10-22T10:14:14.023Z,99898.38
2022-10-22T10:17:00.833Z,99900.00
2022-10-22T10:20:00.042Z,99895.47
2022-10-22T10:22:52.953Z,99887.81
2022-10-22T10:25:41.298Z,99894.41
2022-10-22T10:28:19.889Z,99891.69
2022-10-22T10:30:59.420Z,99888.63
2022-10-22T10:33:55.227Z,99892.03
2022-10-22T10:36:37.467Z,99881.38
2022-10-22T10:39:03.998Z,99883.72
2022-10-22T10:41:51.731Z,99880.47
2022-10-22T10:44:27.407Z,99870.81
2022-10-22T10:47:19.185Z,99879.81
2022-10-22T10:49:46.513Z,99873.94
2022-10-22T10:52:48.440Z,99872.47
2022-10-22T10:55:32.403Z,99873.72
2022-10-22T10:58:12.381Z,99875.78
2022-10-22T11:00:53.439Z,99868.66
2022-10-22T11:03:52.571Z,99872.66
2022-10-22T11:06:24.566Z,99864.97
2022-10-22T11:08:59.306Z,99868.31
2022-10-22T11:11:39.726Z,99868.69
2022-10-22T11:14:29.962Z,99860.81
2022-10-22T11:17:04.493Z,99857.09
2022-10-22T11:19:59.975Z,99852.72
2022-10-22T11:23:00.251Z,99852.72
2022-10-22T11:25:47.530Z,99856.13
2022-10-22T11:28:32.647Z,99854.34
2022-10-22T11:31:07.176Z,99861.53
2022-10-22T11:33:57.321Z,99855.19
2022-10-22T11:39:04.679Z,99848.50
2022-10-22T11:41:34.318Z,99836.69
2022-10-22T11:44:22.719Z,99835.22
2022-10-22T11:47:15.492Z,99835.75
2022-10-22T11:49:57.667Z,99838.31
2022-10-22T11:52:33.214Z,99832.72
2022-10-22T11:55:03.545Z,99834.50
2022-10-22T11:57:37.462Z,99838.25
2022-10-22T12:00:40.564Z,99837.97
2022-10-22T12:03:23.421Z,99840.41
2022-10-22T12:06:16.258Z,99836.38
2022-10-22T12:08:49.938Z,99832.69
2022-10-22T12:11:19.277Z,99829.19
2022-10-22T12:14:16.444Z,99828.66
2022-10-22T12:17:10.287Z,99825.28
2022-10-22T12:19:48.741Z,99827.47
2022-10-22T12:22:21.168Z,99823.28
2022-10-22T12:24:50.057Z,99817.22
2022-10-22T12:27:23.488Z,99817.69
2022-10-22T12:30:00.143Z,99818.03
2022-10-22T12:32:36.094Z,99815.34
2022-10-22T12:35:18.103Z,99811.03
2022-10-22T12:37:45.346Z,99814.28
2022-10-22T12:40:27.024Z,99814.81
2022-10-22T12:42:59.699Z,99808.94
2022-10-22T12:45:28.766Z,99796.75
2022-10-22T12:48:01.168Z,99795.47
2022-10-22T12:50:52.846Z,99807.56
2022-10-22T12:53:43.375Z,99799.75
2022-10-22T12:56:16.246Z,99804.44
2022-10-22T12:58:49.111Z,99799.28
2022-10-22T13:01:17.876Z,99799.28
2022-10-22T13:03:48.649Z,99792.88
2022-10-22T13:06:25.997Z,99788.91
2022-10-22T13:09:22.575Z,99788.00
2022-10-22T13:12:02.712Z,99789.03
2022-10-22T13:14:31.796Z,99793.91
2022-10-22T13:17:17.146Z,99782.88
2022-10-22T13:19:43.569Z,99781.25
2022-10-22T13:22:30.816Z,99781.94
2022-10-22T13:25:24.860Z,99783.91
2022-10-22T13:27:55.775Z,99774.63
2022-10-22T13:30:26.265Z,99777.47
2022-10-22T13:32:56.326Z,99771.53
2022-10-22T13:35:29.830Z,99773.69
2022-10-22T13:37:56.305Z,99773.22
2022-10-22T13:40:22.903Z,99784.97
2022-10-22T13:42:49.393Z,99791.19
2022-10-22T13:45:16.574Z,99785.47
2022-10-22T13:47:48.311Z,99789.53
2022-10-22T13:50:17.544Z,99784.16
2022-10-22T13:52:47.393Z,99789.69
2022-10-22T13:55:23.871Z,99786.34
2022-10-22T13:57:50.326Z,99778.91
2022-10-22T14:00:19.585Z,99778.31
2022-10-22T14:02:48.034Z,99772.75
2022-10-22T14:05:16.789Z,99798.63
2022-10-22T14:07:44.156Z,99787.97
2022-10-22T14:10:22.532Z,99774.84
2022-10-22T14:12:52.558Z,99781.53
2022-10-22T14:15:25.575Z,99777.63
2022-10-22T14:17:56.944Z,99774.84
2022-10-22T14:20:27.702Z,99780.06
2022-10-22T14:22:54.175Z,99775.06
2022-10-22T14:25:23.465Z,99779.59
2022-10-22T14:27:50.056Z,99767.88
2022-10-22T14:30:19.901Z,99774.56
2022-10-22T14:32:46.936Z,99775.91
2022-10-22T14:35:15.871Z,99775.41
2022-10-22T14:37:42.341Z,99782.59
2022-10-22T14:40:12.377Z,99771.53
2022-10-22T14:42:47.535Z,99770.22
2022-10-22T14:45:23.963Z,99770.22
2022-10-22T14:47:51.655Z,99770.56
2022-10-22T14:50:19.165Z,99775.63
2022-10-22T14:52:45.745Z,99770.84
2022-10-22T14:55:14.336Z,99774.81
2022-10-22T14:57:41.457Z,99776.44
2022-10-22T15:00:14.432Z,99773.19
2022-10-22T15:02:41.295Z,99778.78
2022-10-22T15:05:08.303Z,99781.53
2022-10-22T15:07:35.656Z,99786.28
2022-10-22T15:10:02.276Z,99778.44
2022-10-22T15:12:28.785Z,99777.78
2022-10-22T15:14:55.257Z,99775.94
2022-10-22T15:17:21.848Z,99786.59
2022-10-22T15:19:48.325Z,99783.34
2022-10-22T15:22:15.348Z,99785.16
2022-10-22T15:24:45.036Z,99782.41
2022-10-22T15:27:12.225Z,99776.66
2022-10-22T15:29:38.765Z,99780.72
2022-10-22T15:32:05.720Z,99781.53
2022-10-22T15:34:34.332Z,99791.50
2022-10-22T15:37:04.124Z,99782.97
2022-10-22T15:39:31.564Z,99788.31
2022-10-22T15:41:58.497Z,99782.41
2022-10-22T15:44:28.241Z,99789.97
2022-10-22T15:46:55.589Z,99786.31
2022-10-22T15:49:23.662Z,99784.84
2022-10-22T15:51:50.312Z,99785.22
2022-10-22T15:54:19.962Z,99790.78
2022-10-22T15:56:46.979Z,99784.22
2022-10-22T15:59:15.400Z,99777.88
2022-10-22T16:01:42.776Z,99798.78
2022-10-22T16:04:10.236Z,99798.88
2022-10-22T16:06:39.976Z,99791.91
2022-10-22T16:09:12.134Z,99809.69
2022-10-22T16:11:39.603Z,99795.28
2022-10-22T16:14:07.224Z,99795.66
2022-10-22T16:16:36.573Z,99790.88
2022-10-22T16:19:03.217Z,99799.75
2022-10-22T16:21:29.717Z,99802.38
2022-10-22T16:23:56.296Z,99802.72
2022-10-22T16:26:22.768Z,99798.47
2022-10-22T16:28:49.251Z,99799.97
2022-10-22T16:31:17.942Z,99801.72
2022-10-22T16:33:47.817Z,99800.75
2022-10-22T16:36:18.516Z,99800.75
2022-10-22T16:38:45.835Z,99793.91
2022-10-22T16:41:23.146Z,99794.56
2022-10-22T16:43:51.678Z,99794.56
2022-10-22T16:46:20.538Z,99791.94
2022-10-22T16:48:51.301Z,99785.13
2022-10-22T16:51:20.933Z,99786.59
2022-10-22T16:53:47.675Z,99789.06
2022-10-22T16:56:16.085Z,99785.44
2022-10-22T16:58:51.767Z,99779.56
2022-10-22T17:01:20.283Z,99780.72
2022-10-22T17:03:46.992Z,99781.84
2022-10-22T17:06:14.114Z,99783.16
2022-10-22T17:08:41.789Z,99777.16
2022-10-22T17:11:17.062Z,99766.06
2022-10-22T17:13:46.307Z,99775.66
2022-10-22T17:16:15.294Z,99771.44
2022-10-22T17:18:42.920Z,99767.84
2022-10-22T17:21:11.119Z,99767.38
2022-10-22T17:23:37.675Z,99773.91
2022-10-22T17:26:06.726Z,99767.38
2022-10-22T17:28:33.884Z,99770.44
2022-10-22T17:31:04.168Z,99765.91
2022-10-22T17:33:30.786Z,99767.53
2022-10-22T17:35:57.677Z,99760.81
2022-10-22T17:38:24.170Z,99762.31
2022-10-22T17:40:50.763Z,99760.72
2022-10-22T17:43:17.364Z,99760.56
2022-10-22T17:45:43.827Z,99757.09
2022-10-22T17:48:10.322Z,99755.31
2022-10-22T17:50:41.293Z,99755.44
2022-10-22T17:53:08.016Z,99754.84
2022-10-22T17:55:34.486Z,99757.28
2022-10-22T17:58:02.111Z,99758.13
2022-10-22T18:00:29.249Z,99749.78
2022-10-22T18:02:55.693Z,99741.47
2022-10-22T18:07:54.766Z,99743.75
2022-10-22T18:10:21.273Z,99731.19
2022-10-22T18:12:47.844Z,99735.94
2022-10-22T18:15:14.375Z,99736.25
2022-10-22T18:17:41.119Z,99736.44
2022-10-22T18:20:08.575Z,99733.66
2022-10-22T18:22:36.113Z,99727.16
2022-10-22T18:25:02.635Z,99725.19
2022-10-22T18:27:29.263Z,99720.44
2022-10-22T18:29:55.724Z,99719.63
2022-10-22T18:32:22.617Z,99723.22
2022-10-22T18:34:49.192Z,99717.00
2022-10-22T18:37:15.722Z,99722.25
2022-10-22T18:39:42.185Z,99720.94
2022-10-22T18:42:08.785Z,99712.97
2022-10-22T18:44:35.876Z,99717.03
2022-10-22T18:47:02.365Z,99710.03
2022-10-22T18:49:29.049Z,99713.78
2022-10-22T18:51:55.582Z,99714.75
2022-10-22T18:54:23.903Z,99717.19
2022-10-22T18:56:51.691Z,99709.06
2022-10-22T18:59:24.019Z,99708.41
2022-10-22T19:01:53.157Z,99705.31
2022-10-22T19:04:19.794Z,99706.78
2022-10-22T19:06:46.444Z,99718.19
2022-10-22T19:09:14.875Z,99714.75
2022-10-22T19:11:42.935Z,99714.44
2022-10-22T19:14:09.451Z,99718.66
2022-10-22T19:16:36.155Z,99725.84
2022-10-22T19:19:04.953Z,99719.50
2022-10-22T19:21:31.546Z,99717.22
2022-10-22T19:23:59.640Z,99720.63
2022-10-22T19:26:27.309Z,99719.97
2022-10-22T19:28:54.906Z,99711.34
2022-10-22T19:31:23.997Z,99716.88
2022-10-22T19:33:53.887Z,99718.03
2022-10-22T19:36:20.913Z,99715.59
2022-10-22T19:38:48.971Z,99714.75
2022-10-22T19:41:18.763Z,99713.78
2022-10-22T19:43:48.206Z,99706.94
2022-10-22T19:46:14.804Z,99712.97
2022-10-22T19:48:41.353Z,99714.94
2022-10-22T19:51:10.973Z,99706.00
2022-10-22T19:53:38.700Z,99707.63
2022-10-22T19:56:07.369Z,99702.25
2022-10-22T19:58:34.666Z,99703.72
2022-10-22T20:01:10.055Z,99693.94
2022-10-22T20:03:38.366Z,99700.94
2022-10-22T20:06:07.465Z,99694.91
2022-10-22T20:08:36.025Z,99698.94
2022-10-22T20:11:02.760Z,99693.41
2022-10-22T20:13:29.500Z,99692.25
2022-10-22T20:15:56.777Z,99694.81
2022-10-22T20:18:23.328Z,99699.97
2022-10-22T20:20:50.590Z,99698.34
2022-10-22T20:23:17.351Z,99698.00
2022-10-22T20:25:46.227Z,99700.56
2022-10-22T20:28:16.080Z,99697.59
2022-10-22T20:30:44.256Z,99698.56
2022-10-22T20:33:11.308Z,99695.16
2022-10-22T20:35:38.279Z,99695.28
2022-10-22T20:38:06.941Z,99692.38
2022-10-22T20:40:33.938Z,99694.88
2022-10-22T20:43:01.190Z,99691.16
2022-10-22T20:45:28.161Z,99689.88
2022-10-22T20:48:02.135Z,99684.97
2022-10-22T20:50:30.221Z,99676.56
2022-10-22T20:52:56.760Z,99676.28
2022-10-22T20:55:23.480Z,99675.63
2022-10-22T20:57:50.072Z,99665.56
2022-10-22T21:00:16.714Z,99671.78
2022-10-22T21:02:43.271Z,99664.13
2022-10-22T21:05:09.831Z,99665.88
2022-10-22T21:07:36.327Z,99668.19
2022-10-22T21:10:03.940Z,99653.16
2022-10-22T21:12:30.509Z,99663.72
2022-10-22T21:14:57.031Z,99654.63
2022-10-22T21:17:23.497Z,99648.44
2022-10-22T21:19:50.015Z,99655.28
2022-10-22T21:22:16.465Z,99657.91
2022-10-22T21:24:42.920Z,99648.28
2022-10-22T21:27:09.492Z,99655.78
2022-10-22T21:29:35.969Z,99649.13
2022-10-22T21:32:02.436Z,99646.38
2022-10-22T21:34:29.300Z,99640.69
2022-10-22T21:36:55.868Z,99639.56
2022-10-22T21:39:22.326Z,99637.25
2022-10-22T21:41:48.927Z,99636.28
2022-10-22T21:44:15.532Z,99624.38
2022-10-22T21:46:42.004Z,99632.03
2022-10-22T21:49:09.643Z,99630.06
2022-10-22T21:51:36.189Z,99629.59
2022-10-22T21:54:02.734Z,99619.16
2022-10-22T21:56:31.914Z,99619.34
2022-10-22T21:58:58.758Z,99619.50
2022-10-22T22:01:25.570Z,99618.84
2022-10-22T22:03:52.855Z,99611.84
2022-10-22T22:06:22.347Z,99606.47
2022-10-22T22:08:51.195Z,99615.44
2022-10-22T22:11:20.769Z,99606.16
2022-10-22T22:13:47.603Z,99600.13
2022-10-22T22:16:17.209Z,99595.22
2022-10-22T22:18:44.148Z,99589.88
2022-10-22T22:21:13.622Z,99587.13
2022-10-22T22:23:42.938Z,99580.25
2022-10-22T22:26:10.548Z,99585.16
2022-10-22T22:28:37.399Z,99583.69
2022-10-22T22:31:16.265Z,99586.13
2022-10-22T22:33:43.639Z,99578.66
2022-10-22T22:36:10.569Z,99577.00
2022-10-22T22:38:37.923Z,99571.47
2022-10-22T22:41:05.367Z,99575.19
2022-10-22T22:43:32.140Z,99578.28
2022-10-22T22:46:04.417Z,99569.00
2022-10-22T22:48:31.784Z,99574.19
2022-10-22T22:50:58.388Z,99573.06
2022-10-22T22:53:24.919Z,99569.84
2022-10-22T22:55:51.411Z,99570.50
2022-10-22T22:58:17.863Z,99570.16
2022-10-22T23:00:44.400Z,99555.34
2022-10-22T23:03:10.856Z,99560.06
2022-10-22T23:05:37.765Z,99554.34
2022-10-22T23:08:04.604Z,99561.03
2022-10-22T23:10:31.096Z,99556.97
2022-10-22T23:12:57.555Z,99549.34
2022-10-22T23:15:24.130Z,99544.28
2022-10-22T23:17:50.602Z,99546.06
2022-10-22T23:20:17.065Z,99547.84
2022-10-22T23:22:43.925Z,99545.41
2022-10-22T23:25:10.535Z,99535.97
2022-10-22T23:27:37.020Z,99533.22
2022-10-22T23:30:03.893Z,99538.88
2022-10-22T23:32:31.136Z,99534.44
2022-10-22T23:34:57.741Z,99523.53
2022-10-22T23:37:24.242Z,99525.44
2022-10-22T23:39:51.113Z,99521.72
2022-10-22T23:42:17.688Z,99516.94
2022-10-22T23:44:44.195Z,99512.91
2022-10-22T23:47:10.693Z,99508.50
2022-10-22T23:49:37.224Z,99508.41
2022-10-22T23:52:03.823Z,99509.03
2022-10-22T23:54:30.311Z,99505.44
2022-10-22T23:56:56.752Z,99492.44
2022-10-22T23:59:23.286Z,99493.72
